sensor_id;sensor_type;location;lat;lon;timestamp;P1;durP1;ratioP1;P2;durP2;ratioP2
64244;SDS011;50584;29.058;-110.966;2023-11-22T00:00:29;2.28;;;1.02;;
64244;SDS011;50584;29.058;-110.966;2023-11-22T00:02:57;0.68;;;0.68;;
64244;SDS011;50584;29.058;-110.966;2023-11-22T00:05:23;4.97;;;0.93;;
64244;SDS011;50584;29.058;-110.966;2023-11-22T00:07:49;4.95;;;0.77;;
64244;SDS011;50584;29.058;-110.966;2023-11-22T00:10:14;9.20;;;1.10;;
64244;SDS011;50584;29.058;-110.966;2023-11-22T00:12:40;2.22;;;0.70;;
64244;SDS011;50584;29.058;-110.966;2023-11-22T00:15:06;6.82;;;1.08;;
64244;SDS011;50584;29.058;-110.966;2023-11-22T00:17:33;4.60;;;1.13;;
64244;SDS011;50584;29.058;-110.966;2023-11-22T00:19:59;2.20;;;0.88;;
64244;SDS011;50584;29.058;-110.966;2023-11-22T00:22:34;2.13;;;0.63;;
64244;SDS011;50584;29.058;-110.966;2023-11-22T00:25:00;1.38;;;0.70;;
64244;SDS011;50584;29.058;-110.966;2023-11-22T00:27:29;8.30;;;0.70;;
64244;SDS011;50584;29.058;-110.966;2023-11-22T00:29:59;3.47;;;0.57;;
64244;SDS011;50584;29.058;-110.966;2023-11-22T00:32:25;0.60;;;0.50;;
64244;SDS011;50584;29.058;-110.966;2023-11-22T00:34:53;3.40;;;0.70;;
64244;SDS011;50584;29.058;-110.966;2023-11-22T00:37:19;8.35;;;0.85;;
64244;SDS011;50584;29.058;-110.966;2023-11-22T00:39:45;2.75;;;0.65;;
64244;SDS011;50584;29.058;-110.966;2023-11-22T00:42:12;0.60;;;0.60;;
64244;SDS011;50584;29.058;-110.966;2023-11-22T00:44:38;5.47;;;0.70;;
64244;SDS011;50584;29.058;-110.966;2023-11-22T00:47:04;7.50;;;0.82;;
64244;SDS011;50584;29.058;-110.966;2023-11-22T00:49:30;2.45;;;0.70;;
64244;SDS011;50584;29.058;-110.966;2023-11-22T00:51:56;6.55;;;1.02;;
64244;SDS011;50584;29.058;-110.966;2023-11-22T00:54:22;6.75;;;0.90;;
64244;SDS011;50584;29.058;-110.966;2023-11-22T00:56:47;2.67;;;0.70;;
64244;SDS011;50584;29.058;-110.966;2023-11-22T00:59:14;3.65;;;1.15;;
64244;SDS011;50584;29.058;-110.966;2023-11-22T01:01:40;1.42;;;0.50;;
64244;SDS011;50584;29.058;-110.966;2023-11-22T01:04:06;0.60;;;0.60;;
64244;SDS011;50584;29.058;-110.966;2023-11-22T01:06:33;2.67;;;0.60;;
64244;SDS011;50584;29.058;-110.966;2023-11-22T01:08:59;1.63;;;0.80;;
64244;SDS011;50584;29.058;-110.966;2023-11-22T01:11:25;5.93;;;0.70;;
64244;SDS011;50584;29.058;-110.966;2023-11-22T01:13:51;12.00;;;1.08;;
64244;SDS011;50584;29.058;-110.966;2023-11-22T01:16:17;2.45;;;0.90;;
64244;SDS011;50584;29.058;-110.966;2023-11-22T01:18:43;4.30;;;0.90;;
64244;SDS011;50584;29.058;-110.966;2023-11-22T01:21:11;7.85;;;1.10;;
64244;SDS011;50584;29.058;-110.966;2023-11-22T01:23:37;5.45;;;0.98;;
64244;SDS011;50584;29.058;-110.966;2023-11-22T01:26:03;0.85;;;0.80;;
64244;SDS011;50584;29.058;-110.966;2023-11-22T01:28:29;5.72;;;1.80;;
64244;SDS011;50584;29.058;-110.966;2023-11-22T01:30:59;3.10;;;1.13;;
64244;SDS011;50584;29.058;-110.966;2023-11-22T01:33:25;1.55;;;0.93;;
64244;SDS011;50584;29.058;-110.966;2023-11-22T01:35:52;10.93;;;2.03;;
64244;SDS011;50584;29.058;-110.966;2023-11-22T01:38:18;8.30;;;1.02;;
64244;SDS011;50584;29.058;-110.966;2023-11-22T01:40:47;3.20;;;1.15;;
64244;SDS011;50584;29.058;-110.966;2023-11-22T01:43:22;11.38;;;2.47;;
64244;SDS011;50584;29.058;-110.966;2023-11-22T01:45:49;1.40;;;1.30;;
64244;SDS011;50584;29.058;-110.966;2023-11-22T01:48:15;1.90;;;1.00;;
64244;SDS011;50584;29.058;-110.966;2023-11-22T01:50:43;6.45;;;1.98;;
64244;SDS011;50584;29.058;-110.966;2023-11-22T01:53:10;2.03;;;0.90;;
64244;SDS011;50584;29.058;-110.966;2023-11-22T01:55:37;12.00;;;1.42;;
64244;SDS011;50584;29.058;-110.966;2023-11-22T01:58:03;2.97;;;1.13;;
64244;SDS011;50584;29.058;-110.966;2023-11-22T02:00:31;24.65;;;2.88;;
64244;SDS011;50584;29.058;-110.966;2023-11-22T02:02:58;7.07;;;1.20;;
64244;SDS011;50584;29.058;-110.966;2023-11-22T02:05:25;1.25;;;0.80;;
64244;SDS011;50584;29.058;-110.966;2023-11-22T02:07:51;2.58;;;1.52;;
64244;SDS011;50584;29.058;-110.966;2023-11-22T02:10:17;0.80;;;0.80;;
64244;SDS011;50584;29.058;-110.966;2023-11-22T02:12:43;0.75;;;0.75;;
64244;SDS011;50584;29.058;-110.966;2023-11-22T02:15:09;1.98;;;0.80;;
64244;SDS011;50584;29.058;-110.966;2023-11-22T02:17:35;2.95;;;0.60;;
64244;SDS011;50584;29.058;-110.966;2023-11-22T02:20:01;0.90;;;0.60;;
64244;SDS011;50584;29.058;-110.966;2023-11-22T02:22:31;0.80;;;0.80;;
64244;SDS011;50584;29.058;-110.966;2023-11-22T02:24:57;1.55;;;0.75;;
64244;SDS011;50584;29.058;-110.966;2023-11-22T02:27:23;0.50;;;0.50;;
64244;SDS011;50584;29.058;-110.966;2023-11-22T02:29:48;2.40;;;0.50;;
64244;SDS011;50584;29.058;-110.966;2023-11-22T02:32:15;0.95;;;0.80;;
64244;SDS011;50584;29.058;-110.966;2023-11-22T02:34:41;0.60;;;0.60;;
64244;SDS011;50584;29.058;-110.966;2023-11-22T02:37:07;5.10;;;1.00;;
64244;SDS011;50584;29.058;-110.966;2023-11-22T02:39:55;12.55;;;1.30;;
64244;SDS011;50584;29.058;-110.966;2023-11-22T02:42:19;4.57;;;1.20;;
64244;SDS011;50584;29.058;-110.966;2023-11-22T02:44:45;4.40;;;1.10;;
64244;SDS011;50584;29.058;-110.966;2023-11-22T02:47:11;3.42;;;1.00;;
64244;SDS011;50584;29.058;-110.966;2023-11-22T02:49:38;5.90;;;1.10;;
64244;SDS011;50584;29.058;-110.966;2023-11-22T02:52:06;4.25;;;1.10;;
64244;SDS011;50584;29.058;-110.966;2023-11-22T02:54:32;5.03;;;0.82;;
64244;SDS011;50584;29.058;-110.966;2023-11-22T02:56:59;6.50;;;1.10;;
64244;SDS011;50584;29.058;-110.966;2023-11-22T02:59:25;4.80;;;0.80;;
64244;SDS011;50584;29.058;-110.966;2023-11-22T03:01:51;4.05;;;1.05;;
64244;SDS011;50584;29.058;-110.966;2023-11-22T03:04:17;1.85;;;0.95;;
64244;SDS011;50584;29.058;-110.966;2023-11-22T03:06:43;1.50;;;0.88;;
64244;SDS011;50584;29.058;-110.966;2023-11-22T03:09:09;4.70;;;1.00;;
64244;SDS011;50584;29.058;-110.966;2023-11-22T03:11:34;2.15;;;0.90;;
64244;SDS011;50584;29.058;-110.966;2023-11-22T03:14:00;3.20;;;1.05;;
64244;SDS011;50584;29.058;-110.966;2023-11-22T03:16:29;0.80;;;0.80;;
64244;SDS011;50584;29.058;-110.966;2023-11-22T03:18:55;0.63;;;0.63;;
64244;SDS011;50584;29.058;-110.966;2023-11-22T03:21:21;2.13;;;1.55;;
64244;SDS011;50584;29.058;-110.966;2023-11-22T03:23:48;3.70;;;2.08;;
64244;SDS011;50584;29.058;-110.966;2023-11-22T03:26:15;3.75;;;2.10;;
64244;SDS011;50584;29.058;-110.966;2023-11-22T03:28:41;7.90;;;1.40;;
64244;SDS011;50584;29.058;-110.966;2023-11-22T03:31:06;1.00;;;1.00;;
64244;SDS011;50584;29.058;-110.966;2023-11-22T03:33:33;0.80;;;0.80;;
64244;SDS011;50584;29.058;-110.966;2023-11-22T03:35:59;1.23;;;1.05;;
64244;SDS011;50584;29.058;-110.966;2023-11-22T03:38:24;0.70;;;0.70;;
64244;SDS011;50584;29.058;-110.966;2023-11-22T03:40:50;2.20;;;0.93;;
64244;SDS011;50584;29.058;-110.966;2023-11-22T03:43:16;0.60;;;0.60;;
64244;SDS011;50584;29.058;-110.966;2023-11-22T03:45:42;2.17;;;0.80;;
64244;SDS011;50584;29.058;-110.966;2023-11-22T03:48:08;1.13;;;0.60;;
64244;SDS011;50584;29.058;-110.966;2023-11-22T03:50:34;0.80;;;0.55;;
64244;SDS011;50584;29.058;-110.966;2023-11-22T03:52:59;4.82;;;0.63;;
64244;SDS011;50584;29.058;-110.966;2023-11-22T03:55:25;0.52;;;0.52;;
64244;SDS011;50584;29.058;-110.966;2023-11-22T03:57:51;0.80;;;0.80;;
64244;SDS011;50584;29.058;-110.966;2023-11-22T04:00:17;3.03;;;0.80;;
64244;SDS011;50584;29.058;-110.966;2023-11-22T04:02:44;5.20;;;0.60;;
64244;SDS011;50584;29.058;-110.966;2023-11-22T04:05:10;0.90;;;0.77;;
64244;SDS011;50584;29.058;-110.966;2023-11-22T04:07:37;0.85;;;0.52;;
64244;SDS011;50584;29.058;-110.966;2023-11-22T04:10:04;0.60;;;0.60;;
64244;SDS011;50584;29.058;-110.966;2023-11-22T04:12:31;2.35;;;0.77;;
64244;SDS011;50584;29.058;-110.966;2023-11-22T04:14:57;0.50;;;0.50;;
64244;SDS011;50584;29.058;-110.966;2023-11-22T04:17:23;0.68;;;0.60;;
64244;SDS011;50584;29.058;-110.966;2023-11-22T04:19:49;3.80;;;0.75;;
64244;SDS011;50584;29.058;-110.966;2023-11-22T04:22:15;1.75;;;0.80;;
64244;SDS011;50584;29.058;-110.966;2023-11-22T04:24:40;1.20;;;0.57;;
64244;SDS011;50584;29.058;-110.966;2023-11-22T04:27:08;2.05;;;0.70;;
64244;SDS011;50584;29.058;-110.966;2023-11-22T04:29:33;0.50;;;0.50;;
64244;SDS011;50584;29.058;-110.966;2023-11-22T04:31:59;3.65;;;0.60;;
64244;SDS011;50584;29.058;-110.966;2023-11-22T04:34:25;0.43;;;0.43;;
64244;SDS011;50584;29.058;-110.966;2023-11-22T04:36:51;1.25;;;0.50;;
64244;SDS011;50584;29.058;-110.966;2023-11-22T04:39:17;0.77;;;0.68;;
64244;SDS011;50584;29.058;-110.966;2023-11-22T04:41:42;1.00;;;0.50;;
64244;SDS011;50584;29.058;-110.966;2023-11-22T04:44:08;6.53;;;0.70;;
64244;SDS011;50584;29.058;-110.966;2023-11-22T04:46:34;1.60;;;0.70;;
64244;SDS011;50584;29.058;-110.966;2023-11-22T04:49:00;0.70;;;0.70;;
64244;SDS011;50584;29.058;-110.966;2023-11-22T04:51:26;3.47;;;0.90;;
64244;SDS011;50584;29.058;-110.966;2023-11-22T04:53:54;3.78;;;0.90;;
64244;SDS011;50584;29.058;-110.966;2023-11-22T04:56:20;2.97;;;0.80;;
64244;SDS011;50584;29.058;-110.966;2023-11-22T04:58:46;2.08;;;0.80;;
64244;SDS011;50584;29.058;-110.966;2023-11-22T05:01:13;0.95;;;0.80;;
64244;SDS011;50584;29.058;-110.966;2023-11-22T05:03:39;0.70;;;0.70;;
64244;SDS011;50584;29.058;-110.966;2023-11-22T05:06:05;0.93;;;0.70;;
64244;SDS011;50584;29.058;-110.966;2023-11-22T05:08:32;1.35;;;0.70;;
64244;SDS011;50584;29.058;-110.966;2023-11-22T05:10:58;0.70;;;0.70;;
64244;SDS011;50584;29.058;-110.966;2023-11-22T05:13:24;0.82;;;0.68;;
64244;SDS011;50584;29.058;-110.966;2023-11-22T05:15:50;4.22;;;0.70;;
64244;SDS011;50584;29.058;-110.966;2023-11-22T05:18:15;5.60;;;0.90;;
64244;SDS011;50584;29.058;-110.966;2023-11-22T05:20:41;2.83;;;0.80;;
64244;SDS011;50584;29.058;-110.966;2023-11-22T05:23:07;2.22;;;1.15;;
64244;SDS011;50584;29.058;-110.966;2023-11-22T05:25:33;2.33;;;1.38;;
64244;SDS011;50584;29.058;-110.966;2023-11-22T05:27:58;3.47;;;1.60;;
64244;SDS011;50584;29.058;-110.966;2023-11-22T05:30:24;5.28;;;1.35;;
64244;SDS011;50584;29.058;-110.966;2023-11-22T05:32:50;2.45;;;1.70;;
64244;SDS011;50584;29.058;-110.966;2023-11-22T05:35:17;4.45;;;1.35;;
64244;SDS011;50584;29.058;-110.966;2023-11-22T05:37:44;2.35;;;1.50;;
64244;SDS011;50584;29.058;-110.966;2023-11-22T05:40:11;2.17;;;1.52;;
64244;SDS011;50584;29.058;-110.966;2023-11-22T05:42:37;3.85;;;2.55;;
64244;SDS011;50584;29.058;-110.966;2023-11-22T05:45:02;2.78;;;2.00;;
64244;SDS011;50584;29.058;-110.966;2023-11-22T05:47:30;8.23;;;2.90;;
64244;SDS011;50584;29.058;-110.966;2023-11-22T05:49:56;2.47;;;1.73;;
64244;SDS011;50584;29.058;-110.966;2023-11-22T05:52:22;7.07;;;2.35;;
64244;SDS011;50584;29.058;-110.966;2023-11-22T05:54:49;4.03;;;1.50;;
64244;SDS011;50584;29.058;-110.966;2023-11-22T05:57:15;3.75;;;1.52;;
64244;SDS011;50584;29.058;-110.966;2023-11-22T05:59:40;2.90;;;1.40;;
64244;SDS011;50584;29.058;-110.966;2023-11-22T06:02:06;3.25;;;1.30;;
64244;SDS011;50584;29.058;-110.966;2023-11-22T06:04:32;1.58;;;1.48;;
64244;SDS011;50584;29.058;-110.966;2023-11-22T06:06:57;5.72;;;1.10;;
64244;SDS011;50584;29.058;-110.966;2023-11-22T06:09:23;1.35;;;1.20;;
64244;SDS011;50584;29.058;-110.966;2023-11-22T06:11:49;2.97;;;1.17;;
64244;SDS011;50584;29.058;-110.966;2023-11-22T06:14:15;1.17;;;1.13;;
64244;SDS011;50584;29.058;-110.966;2023-11-22T06:16:41;1.23;;;0.90;;
64244;SDS011;50584;29.058;-110.966;2023-11-22T06:19:07;5.25;;;1.00;;
64244;SDS011;50584;29.058;-110.966;2023-11-22T06:21:32;6.18;;;1.27;;
64244;SDS011;50584;29.058;-110.966;2023-11-22T06:23:59;3.78;;;1.30;;
64244;SDS011;50584;29.058;-110.966;2023-11-22T06:26:27;1.00;;;1.00;;
64244;SDS011;50584;29.058;-110.966;2023-11-22T06:28:52;2.05;;;1.48;;
64244;SDS011;50584;29.058;-110.966;2023-11-22T06:31:18;1.85;;;1.60;;
64244;SDS011;50584;29.058;-110.966;2023-11-22T06:33:44;4.18;;;2.50;;
64244;SDS011;50584;29.058;-110.966;2023-11-22T06:36:10;4.95;;;3.05;;
64244;SDS011;50584;29.058;-110.966;2023-11-22T06:38:37;3.70;;;3.17;;
64244;SDS011;50584;29.058;-110.966;2023-11-22T06:41:03;3.45;;;2.13;;
64244;SDS011;50584;29.058;-110.966;2023-11-22T06:43:28;3.38;;;1.58;;
64244;SDS011;50584;29.058;-110.966;2023-11-22T06:45:54;2.65;;;1.65;;
64244;SDS011;50584;29.058;-110.966;2023-11-22T06:48:20;2.22;;;1.20;;
64244;SDS011;50584;29.058;-110.966;2023-11-22T06:50:46;5.57;;;1.30;;
64244;SDS011;50584;29.058;-110.966;2023-11-22T06:53:12;2.03;;;1.15;;
64244;SDS011;50584;29.058;-110.966;2023-11-22T06:55:38;1.23;;;0.98;;
64244;SDS011;50584;29.058;-110.966;2023-11-22T06:58:04;3.92;;;1.23;;
64244;SDS011;50584;29.058;-110.966;2023-11-22T07:00:31;2.53;;;1.38;;
64244;SDS011;50584;29.058;-110.966;2023-11-22T07:02:58;5.63;;;1.88;;
64244;SDS011;50584;29.058;-110.966;2023-11-22T07:05:24;1.33;;;1.20;;
64244;SDS011;50584;29.058;-110.966;2023-11-22T07:07:50;3.33;;;1.20;;
64244;SDS011;50584;29.058;-110.966;2023-11-22T07:10:16;3.85;;;0.90;;
64244;SDS011;50584;29.058;-110.966;2023-11-22T07:12:42;5.10;;;0.90;;
64244;SDS011;50584;29.058;-110.966;2023-11-22T07:15:08;3.42;;;1.00;;
64244;SDS011;50584;29.058;-110.966;2023-11-22T07:17:35;1.63;;;0.60;;
64244;SDS011;50584;29.058;-110.966;2023-11-22T07:20:01;0.95;;;0.60;;
64244;SDS011;50584;29.058;-110.966;2023-11-22T07:22:27;2.38;;;0.90;;
64244;SDS011;50584;29.058;-110.966;2023-11-22T07:24:55;0.50;;;0.50;;
64244;SDS011;50584;29.058;-110.966;2023-11-22T07:27:25;0.47;;;0.47;;
64244;SDS011;50584;29.058;-110.966;2023-11-22T07:29:51;0.60;;;0.60;;
64244;SDS011;50584;29.058;-110.966;2023-11-22T07:32:17;1.48;;;0.73;;
64244;SDS011;50584;29.058;-110.966;2023-11-22T07:34:45;2.33;;;0.50;;
64244;SDS011;50584;29.058;-110.966;2023-11-22T07:37:11;0.50;;;0.50;;
64244;SDS011;50584;29.058;-110.966;2023-11-22T07:39:38;1.10;;;0.60;;
64244;SDS011;50584;29.058;-110.966;2023-11-22T07:42:05;1.70;;;0.70;;
64244;SDS011;50584;29.058;-110.966;2023-11-22T07:44:33;0.60;;;0.60;;
64244;SDS011;50584;29.058;-110.966;2023-11-22T07:47:03;5.55;;;0.68;;
64244;SDS011;50584;29.058;-110.966;2023-11-22T07:49:33;0.70;;;0.70;;
64244;SDS011;50584;29.058;-110.966;2023-11-22T07:52:02;1.45;;;0.50;;
64244;SDS011;50584;29.058;-110.966;2023-11-22T07:54:28;1.02;;;0.63;;
64244;SDS011;50584;29.058;-110.966;2023-11-22T07:56:55;1.10;;;0.80;;
64244;SDS011;50584;29.058;-110.966;2023-11-22T07:59:21;0.65;;;0.63;;
64244;SDS011;50584;29.058;-110.966;2023-11-22T08:01:47;3.70;;;0.60;;
64244;SDS011;50584;29.058;-110.966;2023-11-22T08:04:16;3.72;;;1.00;;
64244;SDS011;50584;29.058;-110.966;2023-11-22T08:06:45;1.48;;;0.80;;
64244;SDS011;50584;29.058;-110.966;2023-11-22T08:09:11;1.00;;;0.80;;
64244;SDS011;50584;29.058;-110.966;2023-11-22T08:11:37;0.85;;;0.70;;
64244;SDS011;50584;29.058;-110.966;2023-11-22T08:14:02;2.03;;;1.10;;
64244;SDS011;50584;29.058;-110.966;2023-11-22T08:16:29;7.28;;;1.35;;
64244;SDS011;50584;29.058;-110.966;2023-11-22T08:18:55;1.17;;;1.10;;
64244;SDS011;50584;29.058;-110.966;2023-11-22T08:21:22;2.05;;;0.90;;
64244;SDS011;50584;29.058;-110.966;2023-11-22T08:23:48;5.70;;;1.35;;
64244;SDS011;50584;29.058;-110.966;2023-11-22T08:26:14;1.58;;;0.98;;
64244;SDS011;50584;29.058;-110.966;2023-11-22T08:28:40;2.58;;;1.00;;
64244;SDS011;50584;29.058;-110.966;2023-11-22T08:31:06;3.33;;;1.13;;
64244;SDS011;50584;29.058;-110.966;2023-11-22T08:33:38;1.95;;;1.20;;
64244;SDS011;50584;29.058;-110.966;2023-11-22T08:36:05;3.58;;;1.13;;
64244;SDS011;50584;29.058;-110.966;2023-11-22T08:38:31;1.35;;;1.25;;
64244;SDS011;50584;29.058;-110.966;2023-11-22T08:41:03;2.13;;;1.40;;
64244;SDS011;50584;29.058;-110.966;2023-11-22T08:45:57;4.30;;;1.25;;
64244;SDS011;50584;29.058;-110.966;2023-11-22T08:48:24;1.58;;;1.45;;
64244;SDS011;50584;29.058;-110.966;2023-11-22T08:50:49;1.75;;;0.73;;
64244;SDS011;50584;29.058;-110.966;2023-11-22T08:53:15;1.85;;;0.85;;
64244;SDS011;50584;29.058;-110.966;2023-11-22T08:55:43;0.52;;;0.52;;
64244;SDS011;50584;29.058;-110.966;2023-11-22T08:58:11;1.08;;;0.85;;
64244;SDS011;50584;29.058;-110.966;2023-11-22T09:00:37;1.85;;;1.00;;
64244;SDS011;50584;29.058;-110.966;2023-11-22T09:03:03;2.28;;;0.90;;
64244;SDS011;50584;29.058;-110.966;2023-11-22T09:05:29;4.10;;;1.17;;
64244;SDS011;50584;29.058;-110.966;2023-11-22T09:07:54;1.25;;;0.60;;
64244;SDS011;50584;29.058;-110.966;2023-11-22T09:10:24;2.72;;;0.55;;
64244;SDS011;50584;29.058;-110.966;2023-11-22T09:12:50;1.52;;;0.68;;
64244;SDS011;50584;29.058;-110.966;2023-11-22T09:15:17;2.53;;;0.63;;
64244;SDS011;50584;29.058;-110.966;2023-11-22T09:17:44;2.10;;;0.50;;
64244;SDS011;50584;29.058;-110.966;2023-11-22T09:20:14;2.38;;;0.60;;
64244;SDS011;50584;29.058;-110.966;2023-11-22T09:22:43;5.95;;;0.70;;
64244;SDS011;50584;29.058;-110.966;2023-11-22T09:25:22;1.10;;;0.63;;
64244;SDS011;50584;29.058;-110.966;2023-11-22T09:27:51;0.52;;;0.50;;
64244;SDS011;50584;29.058;-110.966;2023-11-22T09:30:21;3.83;;;0.70;;
64244;SDS011;50584;29.058;-110.966;2023-11-22T09:33:13;4.28;;;0.70;;
64244;SDS011;50584;29.058;-110.966;2023-11-22T09:35:40;3.15;;;0.70;;
64244;SDS011;50584;29.058;-110.966;2023-11-22T09:38:07;2.92;;;0.60;;
64244;SDS011;50584;29.058;-110.966;2023-11-22T09:40:41;0.85;;;0.50;;
64244;SDS011;50584;29.058;-110.966;2023-11-22T09:43:07;2.00;;;0.82;;
64244;SDS011;50584;29.058;-110.966;2023-11-22T09:45:33;0.98;;;0.70;;
64244;SDS011;50584;29.058;-110.966;2023-11-22T09:48:00;1.75;;;0.77;;
64244;SDS011;50584;29.058;-110.966;2023-11-22T09:50:34;9.32;;;1.00;;
64244;SDS011;50584;29.058;-110.966;2023-11-22T09:53:02;3.60;;;0.90;;
64244;SDS011;50584;29.058;-110.966;2023-11-22T09:55:29;0.50;;;0.50;;
64244;SDS011;50584;29.058;-110.966;2023-11-22T09:57:57;0.60;;;0.60;;
64244;SDS011;50584;29.058;-110.966;2023-11-22T10:00:23;0.70;;;0.70;;
64244;SDS011;50584;29.058;-110.966;2023-11-22T10:02:52;5.97;;;1.20;;
64244;SDS011;50584;29.058;-110.966;2023-11-22T10:05:19;2.17;;;1.85;;
64244;SDS011;50584;29.058;-110.966;2023-11-22T10:07:45;3.20;;;1.60;;
64244;SDS011;50584;29.058;-110.966;2023-11-22T10:10:14;2.20;;;1.08;;
64244;SDS011;50584;29.058;-110.966;2023-11-22T10:12:43;1.17;;;0.98;;
64244;SDS011;50584;29.058;-110.966;2023-11-22T10:15:13;0.75;;;0.75;;
64244;SDS011;50584;29.058;-110.966;2023-11-22T10:17:39;0.50;;;0.50;;
64244;SDS011;50584;29.058;-110.966;2023-11-22T10:20:05;1.08;;;0.60;;
64244;SDS011;50584;29.058;-110.966;2023-11-22T10:22:45;0.60;;;0.60;;
64244;SDS011;50584;29.058;-110.966;2023-11-22T10:25:15;1.58;;;0.70;;
64244;SDS011;50584;29.058;-110.966;2023-11-22T10:27:45;3.38;;;0.65;;
64244;SDS011;50584;29.058;-110.966;2023-11-22T10:30:11;3.67;;;0.85;;
64244;SDS011;50584;29.058;-110.966;2023-11-22T10:32:37;0.70;;;0.70;;
64244;SDS011;50584;29.058;-110.966;2023-11-22T10:35:05;1.95;;;0.63;;
64244;SDS011;50584;29.058;-110.966;2023-11-22T10:37:31;1.20;;;0.77;;
64244;SDS011;50584;29.058;-110.966;2023-11-22T10:39:57;1.23;;;0.60;;
64244;SDS011;50584;29.058;-110.966;2023-11-22T10:42:23;2.72;;;0.70;;
64244;SDS011;50584;29.058;-110.966;2023-11-22T10:44:49;4.88;;;0.70;;
64244;SDS011;50584;29.058;-110.966;2023-11-22T10:47:15;0.65;;;0.65;;
64244;SDS011;50584;29.058;-110.966;2023-11-22T10:49:44;1.08;;;0.73;;
64244;SDS011;50584;29.058;-110.966;2023-11-22T10:52:12;0.60;;;0.60;;
64244;SDS011;50584;29.058;-110.966;2023-11-22T10:54:39;3.10;;;0.80;;
64244;SDS011;50584;29.058;-110.966;2023-11-22T10:57:08;2.65;;;0.60;;
64244;SDS011;50584;29.058;-110.966;2023-11-22T10:59:34;0.93;;;0.63;;
64244;SDS011;50584;29.058;-110.966;2023-11-22T11:02:01;1.05;;;0.70;;
64244;SDS011;50584;29.058;-110.966;2023-11-22T11:04:35;0.60;;;0.60;;
64244;SDS011;50584;29.058;-110.966;2023-11-22T11:07:05;0.60;;;0.60;;
64244;SDS011;50584;29.058;-110.966;2023-11-22T11:09:32;0.70;;;0.70;;
64244;SDS011;50584;29.058;-110.966;2023-11-22T11:11:58;2.40;;;0.95;;
64244;SDS011;50584;29.058;-110.966;2023-11-22T11:14:25;1.48;;;0.70;;
64244;SDS011;50584;29.058;-110.966;2023-11-22T11:16:52;0.40;;;0.40;;
64244;SDS011;50584;29.058;-110.966;2023-11-22T11:19:19;1.70;;;0.70;;
64244;SDS011;50584;29.058;-110.966;2023-11-22T11:21:49;0.70;;;0.70;;
64244;SDS011;50584;29.058;-110.966;2023-11-22T11:24:15;2.97;;;0.90;;
64244;SDS011;50584;29.058;-110.966;2023-11-22T11:26:41;2.25;;;0.80;;
64244;SDS011;50584;29.058;-110.966;2023-11-22T11:29:32;1.08;;;0.90;;
64244;SDS011;50584;29.058;-110.966;2023-11-22T11:31:58;3.58;;;1.10;;
64244;SDS011;50584;29.058;-110.966;2023-11-22T11:34:24;2.35;;;0.80;;
64244;SDS011;50584;29.058;-110.966;2023-11-22T11:36:53;2.15;;;0.80;;
64244;SDS011;50584;29.058;-110.966;2023-11-22T11:39:25;3.10;;;1.70;;
64244;SDS011;50584;29.058;-110.966;2023-11-22T11:42:16;2.03;;;1.73;;
64244;SDS011;50584;29.058;-110.966;2023-11-22T11:47:27;3.88;;;1.30;;
64244;SDS011;50584;29.058;-110.966;2023-11-22T11:49:52;0.70;;;0.70;;
64244;SDS011;50584;29.058;-110.966;2023-11-22T11:52:20;1.65;;;0.77;;
64244;SDS011;50584;29.058;-110.966;2023-11-22T11:54:46;1.98;;;0.50;;
64244;SDS011;50584;29.058;-110.966;2023-11-22T11:57:12;1.30;;;0.70;;
64244;SDS011;50584;29.058;-110.966;2023-11-22T11:59:38;3.63;;;0.60;;
64244;SDS011;50584;29.058;-110.966;2023-11-22T12:02:03;1.17;;;0.60;;
64244;SDS011;50584;29.058;-110.966;2023-11-22T12:04:31;1.23;;;0.77;;
64244;SDS011;50584;29.058;-110.966;2023-11-22T12:06:57;2.50;;;0.93;;
64244;SDS011;50584;29.058;-110.966;2023-11-22T12:09:24;0.70;;;0.60;;
64244;SDS011;50584;29.058;-110.966;2023-11-22T12:11:50;3.33;;;0.47;;
64244;SDS011;50584;29.058;-110.966;2023-11-22T12:14:19;2.63;;;0.70;;
64244;SDS011;50584;29.058;-110.966;2023-11-22T12:16:45;1.13;;;0.60;;
64244;SDS011;50584;29.058;-110.966;2023-11-22T12:19:23;6.10;;;1.00;;
64244;SDS011;50584;29.058;-110.966;2023-11-22T12:21:50;2.63;;;0.80;;
64244;SDS011;50584;29.058;-110.966;2023-11-22T12:24:15;1.90;;;0.75;;
64244;SDS011;50584;29.058;-110.966;2023-11-22T12:26:45;1.38;;;0.88;;
64244;SDS011;50584;29.058;-110.966;2023-11-22T12:29:12;0.77;;;0.77;;
64244;SDS011;50584;29.058;-110.966;2023-11-22T12:31:49;0.75;;;0.75;;
64244;SDS011;50584;29.058;-110.966;2023-11-22T12:34:20;3.40;;;0.80;;
64244;SDS011;50584;29.058;-110.966;2023-11-22T12:36:46;0.60;;;0.60;;
64244;SDS011;50584;29.058;-110.966;2023-11-22T12:39:15;0.65;;;0.65;;
64244;SDS011;50584;29.058;-110.966;2023-11-22T12:41:44;0.60;;;0.60;;
64244;SDS011;50584;29.058;-110.966;2023-11-22T12:44:11;0.50;;;0.50;;
64244;SDS011;50584;29.058;-110.966;2023-11-22T12:49:20;0.60;;;0.60;;
64244;SDS011;50584;29.058;-110.966;2023-11-22T12:51:51;0.60;;;0.60;;
64244;SDS011;50584;29.058;-110.966;2023-11-22T12:54:17;2.97;;;0.70;;
64244;SDS011;50584;29.058;-110.966;2023-11-22T12:56:49;3.25;;;0.68;;
64244;SDS011;50584;29.058;-110.966;2023-11-22T12:59:24;0.57;;;0.50;;
64244;SDS011;50584;29.058;-110.966;2023-11-22T13:01:53;4.60;;;0.77;;
64244;SDS011;50584;29.058;-110.966;2023-11-22T13:04:19;0.70;;;0.50;;
64244;SDS011;50584;29.058;-110.966;2023-11-22T13:06:45;1.00;;;0.80;;
64244;SDS011;50584;29.058;-110.966;2023-11-22T13:09:11;0.85;;;0.85;;
64244;SDS011;50584;29.058;-110.966;2023-11-22T13:11:40;0.77;;;0.70;;
64244;SDS011;50584;29.058;-110.966;2023-11-22T13:14:07;0.70;;;0.70;;
64244;SDS011;50584;29.058;-110.966;2023-11-22T13:16:33;6.13;;;0.85;;
64244;SDS011;50584;29.058;-110.966;2023-11-22T13:19:00;5.68;;;0.85;;
64244;SDS011;50584;29.058;-110.966;2023-11-22T13:21:25;0.95;;;0.60;;
64244;SDS011;50584;29.058;-110.966;2023-11-22T13:23:52;1.45;;;0.77;;
64244;SDS011;50584;29.058;-110.966;2023-11-22T13:26:17;1.23;;;0.77;;
64244;SDS011;50584;29.058;-110.966;2023-11-22T13:28:43;5.45;;;0.80;;
64244;SDS011;50584;29.058;-110.966;2023-11-22T13:31:10;1.33;;;0.70;;
64244;SDS011;50584;29.058;-110.966;2023-11-22T13:33:37;2.53;;;1.10;;
64244;SDS011;50584;29.058;-110.966;2023-11-22T13:36:04;12.63;;;2.05;;
64244;SDS011;50584;29.058;-110.966;2023-11-22T13:38:30;2.58;;;0.65;;
64244;SDS011;50584;29.058;-110.966;2023-11-22T13:40:56;0.50;;;0.50;;
64244;SDS011;50584;29.058;-110.966;2023-11-22T13:43:22;4.18;;;0.98;;
64244;SDS011;50584;29.058;-110.966;2023-11-22T13:45:48;8.32;;;0.90;;
64244;SDS011;50584;29.058;-110.966;2023-11-22T13:48:15;7.30;;;1.23;;
64244;SDS011;50584;29.058;-110.966;2023-11-22T13:50:41;1.83;;;0.73;;
64244;SDS011;50584;29.058;-110.966;2023-11-22T13:53:07;4.90;;;1.00;;
64244;SDS011;50584;29.058;-110.966;2023-11-22T13:55:36;3.08;;;0.88;;
64244;SDS011;50584;29.058;-110.966;2023-11-22T13:58:02;0.60;;;0.60;;
64244;SDS011;50584;29.058;-110.966;2023-11-22T14:00:30;4.78;;;1.00;;
64244;SDS011;50584;29.058;-110.966;2023-11-22T14:03:00;0.70;;;0.70;;
64244;SDS011;50584;29.058;-110.966;2023-11-22T14:05:33;4.03;;;0.93;;
64244;SDS011;50584;29.058;-110.966;2023-11-22T14:07:59;2.83;;;0.77;;
64244;SDS011;50584;29.058;-110.966;2023-11-22T14:10:25;3.60;;;1.42;;
64244;SDS011;50584;29.058;-110.966;2023-11-22T14:12:51;22.35;;;8.98;;
64244;SDS011;50584;29.058;-110.966;2023-11-22T14:15:17;14.60;;;5.18;;